createdAt,value
2019-04-01T00:01:24.988Z,8.46
2019-04-01T00:03:54.019Z,8.50
2019-04-01T00:06:23.418Z,8.43
2019-04-01T00:08:52.455Z,8.45
2019-04-01T00:11:21.484Z,8.43
2019-04-01T00:13:51.152Z,8.41
2019-04-01T00:16:20.561Z,8.44
2019-04-01T00:19:02.350Z,8.33
2019-04-01T00:21:20.340Z,8.31
2019-04-01T00:23:49.360Z,8.15
2019-04-01T00:26:18.451Z,8.23
2019-04-01T00:28:47.435Z,8.27
2019-04-01T00:31:16.506Z,8.35
2019-04-01T00:33:45.569Z,8.13
2019-04-01T00:36:14.591Z,8.04
2019-04-01T00:38:43.707Z,8.10
2019-04-01T00:41:12.801Z,8.14
2019-04-01T00:43:52.658Z,8.07
2019-04-01T00:46:21.792Z,8.03
2019-04-01T00:48:50.972Z,7.85
2019-04-01T00:51:20.419Z,7.95
2019-04-01T00:53:49.475Z,7.87
2019-04-01T00:56:18.719Z,7.87
2019-04-01T00:58:48.120Z,7.92
2019-04-01T01:01:17.209Z,7.89
2019-04-01T01:03:46.300Z,7.88
2019-04-01T01:06:15.506Z,7.82
2019-04-01T01:08:44.971Z,7.77
2019-04-01T01:11:14.002Z,7.80
2019-04-01T01:13:43.092Z,7.76
2019-04-01T01:16:12.448Z,7.68
2019-04-01T01:18:41.524Z,7.70
2019-04-01T01:21:10.585Z,7.62
2019-04-01T01:23:40.604Z,7.69
2019-04-01T01:26:09.671Z,7.75
2019-04-01T01:28:38.703Z,7.65
2019-04-01T01:31:08.121Z,7.62
2019-04-01T01:33:37.139Z,7.55
2019-04-01T01:36:06.495Z,7.51
2019-04-01T01:38:35.949Z,7.57
2019-04-01T01:41:04.996Z,7.48
2019-04-01T01:43:34.069Z,7.43
2019-04-01T01:46:03.166Z,7.29
2019-04-01T01:48:32.366Z,7.33
2019-04-01T01:51:01.374Z,7.27
2019-04-01T01:53:30.858Z,7.22
2019-04-01T01:56:00.195Z,7.47
2019-04-01T01:58:29.325Z,7.48
2019-04-01T02:00:58.423Z,7.43
2019-04-01T02:03:27.471Z,7.43
2019-04-01T02:05:56.447Z,7.52
2019-04-01T02:08:25.897Z,7.34
2019-04-01T02:10:55.283Z,7.27
2019-04-01T02:13:24.396Z,7.27
2019-04-01T02:15:53.434Z,7.14
2019-04-01T02:18:22.465Z,7.13
2019-04-01T02:20:51.829Z,7.04
2019-04-01T02:23:20.891Z,7.09
2019-04-01T02:25:49.985Z,6.99
2019-04-01T02:28:19.098Z,6.97
2019-04-01T02:30:48.484Z,6.92
2019-04-01T02:33:18.052Z,7.03
2019-04-01T02:35:47.121Z,6.85
2019-04-01T02:38:16.268Z,6.91
2019-04-01T02:40:45.392Z,6.87
2019-04-01T02:43:14.509Z,6.80
2019-04-01T02:45:43.921Z,6.73
2019-04-01T02:48:12.996Z,6.74
2019-04-01T02:50:42.103Z,6.76
2019-04-01T02:53:11.425Z,6.70
2019-04-01T02:55:41.348Z,6.62
2019-04-01T02:58:10.307Z,6.61
2019-04-01T03:00:39.649Z,6.60
2019-04-01T03:03:08.943Z,6.51
2019-04-01T03:05:38.005Z,6.57
2019-04-01T03:08:07.041Z,6.40
2019-04-01T03:10:36.058Z,6.52
2019-04-01T03:13:05.218Z,6.37
2019-04-01T03:15:34.291Z,6.34
2019-04-01T03:18:03.414Z,6.35
2019-04-01T03:20:32.761Z,6.25
2019-04-01T03:23:01.857Z,6.22
2019-04-01T03:25:30.842Z,6.07
2019-04-01T03:27:59.863Z,6.37
2019-04-01T03:30:29.255Z,6.41
2019-04-01T03:32:58.288Z,6.26
2019-04-01T03:35:27.606Z,6.16
2019-04-01T03:37:57.066Z,6.25
2019-04-01T03:40:26.070Z,6.10
2019-04-01T03:42:55.098Z,6.02
2019-04-01T03:45:24.171Z,6.04
2019-04-01T03:47:53.217Z,6.01
2019-04-01T03:50:22.357Z,5.95
2019-04-01T03:52:51.426Z,5.95
2019-04-01T03:55:20.436Z,5.95
2019-04-01T03:57:49.451Z,5.99
2019-04-01T04:00:18.798Z,5.93
2019-04-01T04:02:47.797Z,5.95
2019-04-01T04:05:16.902Z,5.89
2019-04-01T04:07:46.018Z,5.89
2019-04-01T04:10:15.384Z,5.95
2019-04-01T04:12:44.558Z,5.79
2019-04-01T04:15:13.665Z,5.74
2019-04-01T04:17:43.173Z,5.72
2019-04-01T04:20:12.279Z,5.67
2019-04-01T04:22:41.886Z,5.75
2019-04-01T04:25:10.946Z,5.75
2019-04-01T04:27:39.980Z,5.60
2019-04-01T04:30:09.263Z,5.65
2019-04-01T04:32:38.336Z,5.62
2019-04-01T04:35:07.455Z,5.62
2019-04-01T04:37:36.620Z,5.55
2019-04-01T04:40:06.581Z,5.48
2019-04-01T04:42:35.635Z,5.48
2019-04-01T04:45:04.879Z,5.45
2019-04-01T04:47:33.893Z,5.52
2019-04-01T04:50:04.497Z,5.51
2019-04-01T04:52:33.842Z,5.62
2019-04-01T04:55:03.573Z,5.65
2019-04-01T04:57:33.217Z,5.51
2019-04-01T05:00:03.715Z,5.47
2019-04-01T05:02:33.077Z,5.32
2019-04-01T05:05:04.146Z,5.32
2019-04-01T05:07:33.280Z,5.35
2019-04-01T05:10:02.709Z,5.34
2019-04-01T05:12:31.869Z,5.29
2019-04-01T05:15:01.662Z,5.31
2019-04-01T05:17:31.135Z,5.34
2019-04-01T05:20:00.876Z,5.43
2019-04-01T05:22:30.083Z,5.32
2019-04-01T05:24:59.557Z,5.38
2019-04-01T05:27:28.710Z,5.25
2019-04-01T05:29:58.771Z,5.28
2019-04-01T05:32:28.261Z,5.23
2019-04-01T05:34:57.353Z,5.22
2019-04-01T05:37:26.581Z,5.13
2019-04-01T05:39:55.801Z,5.15
2019-04-01T05:42:25.109Z,5.09
2019-04-01T05:44:54.319Z,5.65
2019-04-01T05:47:29.705Z,5.76
2019-04-01T05:49:58.745Z,6.14
2019-04-01T05:52:27.881Z,5.96
2019-04-01T05:54:57.417Z,5.80
2019-04-01T05:57:26.622Z,5.52
2019-04-01T05:59:55.759Z,5.73
2019-04-01T06:02:25.158Z,5.55
2019-04-01T06:04:54.611Z,5.48
2019-04-01T06:07:24.519Z,5.48
2019-04-01T06:09:53.585Z,5.52
2019-04-01T06:12:24.269Z,5.37
2019-04-01T06:14:56.198Z,5.37
2019-04-01T06:17:26.004Z,5.40
2019-04-01T06:19:55.084Z,5.44
2019-04-01T06:22:24.393Z,5.34
2019-04-01T06:24:53.450Z,5.52
2019-04-01T06:27:22.973Z,5.43
2019-04-01T06:29:52.836Z,5.44
2019-04-01T06:32:22.055Z,5.38
2019-04-01T06:34:52.999Z,5.46
2019-04-01T06:37:21.845Z,5.45
2019-04-01T06:39:50.871Z,5.51
2019-04-01T06:42:20.964Z,5.43
2019-04-01T06:44:50.006Z,5.40
2019-04-01T06:47:19.380Z,5.51
2019-04-01T06:49:48.601Z,5.41
2019-04-01T06:52:17.680Z,5.50
2019-04-01T06:54:47.158Z,5.54
2019-04-01T06:57:16.220Z,5.42
2019-04-01T06:59:45.554Z,5.43
2019-04-01T07:02:15.412Z,5.71
2019-04-01T07:04:44.456Z,5.71
2019-04-01T07:07:19.267Z,6.01
2019-04-01T07:09:44.642Z,5.85
2019-04-01T07:12:13.800Z,5.85
2019-04-01T07:14:43.932Z,6.01
2019-04-01T07:17:13.279Z,6.22
2019-04-01T07:19:42.838Z,6.26
2019-04-01T07:22:11.967Z,6.39
2019-04-01T07:24:43.587Z,6.37
2019-04-01T07:27:12.968Z,6.42
2019-04-01T07:29:42.696Z,6.45
2019-04-01T07:32:14.421Z,6.60
2019-04-01T07:34:43.147Z,6.72
2019-04-01T07:37:12.542Z,6.79
2019-04-01T07:39:42.128Z,6.80
2019-04-01T07:42:12.120Z,6.91
2019-04-01T07:44:41.186Z,7.11
2019-04-01T07:47:10.604Z,7.26
2019-04-01T07:49:39.881Z,7.44
2019-04-01T07:52:08.922Z,7.67
2019-04-01T07:54:38.031Z,7.65
2019-04-01T07:57:07.140Z,7.68
2019-04-01T07:59:37.414Z,7.77
2019-04-01T08:02:06.730Z,7.90
2019-04-01T08:04:35.795Z,7.97
2019-04-01T08:07:05.201Z,7.98
2019-04-01T08:09:34.704Z,8.38
2019-04-01T08:12:03.776Z,8.30
2019-04-01T08:14:32.896Z,8.47
2019-04-01T08:17:03.117Z,8.49
2019-04-01T08:19:32.615Z,8.47
2019-04-01T08:22:02.021Z,8.78
2019-04-01T08:24:31.168Z,8.85
2019-04-01T08:27:00.222Z,9.20
2019-04-01T08:29:30.806Z,9.00
2019-04-01T08:32:00.524Z,9.40
2019-04-01T08:34:30.204Z,9.48
2019-04-01T08:37:15.359Z,9.69
2019-04-01T08:39:44.782Z,9.86
2019-04-01T08:42:14.320Z,9.97
2019-04-01T08:44:43.808Z,9.88
2019-04-01T08:47:15.054Z,10.10
2019-04-01T08:49:44.230Z,10.62
2019-04-01T08:52:13.658Z,11.08
2019-04-01T08:54:43.160Z,12.14
2019-04-01T08:57:12.341Z,13.75
2019-04-01T08:59:41.445Z,15.42
2019-04-01T09:02:17.641Z,16.58
2019-04-01T09:04:41.661Z,16.42
2019-04-01T09:07:10.958Z,17.68
2019-04-01T09:09:40.230Z,17.36
2019-04-01T09:12:09.683Z,18.16
2019-04-01T09:14:38.875Z,18.46
2019-04-01T09:17:08.614Z,18.19
2019-04-01T09:19:37.667Z,17.68
2019-04-01T09:22:10.080Z,17.89
2019-04-01T09:24:39.271Z,18.93
2019-04-01T09:27:08.444Z,19.60
2019-04-01T09:29:38.646Z,20.14
2019-04-01T09:32:07.900Z,18.59
2019-04-01T09:34:36.943Z,17.30
2019-04-01T09:37:06.329Z,16.95
2019-04-01T09:39:35.716Z,16.37
2019-04-01T09:42:04.794Z,15.48
2019-04-01T09:44:37.008Z,14.89
2019-04-01T09:47:04.708Z,15.32
2019-04-01T09:49:34.108Z,15.83
2019-04-01T09:52:04.004Z,17.37
2019-04-01T09:54:33.373Z,18.81
2019-04-01T09:57:16.771Z,20.43
2019-04-01T09:59:36.185Z,21.37
2019-04-01T10:02:06.456Z,21.37
2019-04-01T10:04:36.284Z,20.82
2019-04-01T10:07:06.253Z,20.46
2019-04-01T10:09:35.571Z,21.18
2019-04-01T10:12:05.117Z,22.11
2019-04-01T10:14:34.477Z,21.70
2019-04-01T10:17:04.043Z,22.42
2019-04-01T10:19:33.099Z,22.26
2019-04-01T10:22:02.146Z,21.65
2019-04-01T10:24:32.028Z,20.86
2019-04-01T10:27:01.222Z,20.15
2019-04-01T10:29:30.372Z,19.38
2019-04-01T10:32:00.092Z,19.49
2019-04-01T10:34:29.176Z,18.45
2019-04-01T10:36:58.208Z,19.34
2019-04-01T10:39:27.526Z,19.50
2019-04-01T10:41:56.944Z,18.97
2019-04-01T10:44:26.050Z,18.96
2019-04-01T10:46:55.346Z,19.51
2019-04-01T10:49:25.931Z,19.60
2019-04-01T10:51:55.097Z,19.24
2019-04-01T10:54:24.193Z,20.04
2019-04-01T10:56:53.787Z,20.16
2019-04-01T10:59:22.874Z,20.34
2019-04-01T11:01:52.207Z,21.30
2019-04-01T11:04:21.708Z,21.89
2019-04-01T11:06:50.864Z,22.88
2019-04-01T11:09:20.254Z,23.68
2019-04-01T11:11:49.665Z,22.62
2019-04-01T11:14:19.189Z,23.59
2019-04-01T11:16:48.346Z,24.27
2019-04-01T11:19:17.408Z,23.51
2019-04-01T11:21:47.005Z,24.33
2019-04-01T11:24:17.012Z,23.95
2019-04-01T11:26:46.164Z,24.20
2019-04-01T11:29:15.376Z,24.73
2019-04-01T11:31:44.768Z,24.32
2019-04-01T11:34:14.074Z,23.40
2019-04-01T11:36:43.300Z,24.24
2019-04-01T11:39:13.334Z,24.16
2019-04-01T11:41:42.447Z,24.74
2019-04-01T11:44:11.577Z,25.44
2019-04-01T11:46:40.717Z,24.76
2019-04-01T11:49:09.890Z,25.10
2019-04-01T11:51:40.239Z,25.82
2019-04-01T11:54:10.218Z,24.84
2019-04-01T11:56:41.361Z,25.50
2019-04-01T11:59:10.547Z,25.52
2019-04-01T12:01:39.898Z,24.81
2019-04-01T12:04:09.536Z,24.98
2019-04-01T12:06:38.655Z,24.53
2019-04-01T12:09:08.402Z,24.88
2019-04-01T12:11:37.918Z,24.12
2019-04-01T12:14:07.564Z,24.45
2019-04-01T12:16:37.104Z,23.71
2019-04-01T12:19:06.365Z,24.00
2019-04-01T12:21:35.446Z,23.78
2019-04-01T12:24:04.544Z,23.94
2019-04-01T12:26:33.640Z,23.58
2019-04-01T12:29:02.660Z,22.64
2019-04-01T12:31:31.979Z,22.74
2019-04-01T12:34:01.338Z,23.03
2019-04-01T12:36:30.438Z,23.79
2019-04-01T12:38:59.737Z,23.78
2019-04-01T12:41:28.829Z,24.25
2019-04-01T12:43:58.278Z,24.24
2019-04-01T12:46:27.363Z,24.11
2019-04-01T12:48:56.578Z,24.27
2019-04-01T12:51:25.653Z,24.40
2019-04-01T12:53:54.784Z,24.78
2019-04-01T12:56:23.842Z,25.53
2019-04-01T12:58:53.898Z,25.72
2019-04-01T13:01:24.008Z,25.73
2019-04-01T13:03:53.714Z,25.16
2019-04-01T13:06:23.094Z,25.19
2019-04-01T13:08:53.556Z,23.54
2019-04-01T13:11:23.166Z,23.59
2019-04-01T13:13:52.255Z,23.63
2019-04-01T13:16:21.366Z,23.65
2019-04-01T13:18:50.396Z,23.39
2019-04-01T13:21:19.435Z,24.29
2019-04-01T13:23:48.505Z,24.45
2019-04-01T13:26:18.173Z,23.84
2019-04-01T13:28:47.374Z,23.38
2019-04-01T13:31:16.444Z,23.62
2019-04-01T13:33:45.496Z,23.80
2019-04-01T13:36:14.929Z,23.33
2019-04-01T13:38:44.215Z,22.84
2019-04-01T13:41:15.429Z,23.83
2019-04-01T13:43:44.368Z,23.26
2019-04-01T13:46:13.408Z,23.23
2019-04-01T13:48:56.525Z,22.76
2019-04-01T13:51:13.509Z,22.48
2019-04-01T13:53:42.591Z,22.60
2019-04-01T13:56:12.674Z,22.66
2019-04-01T13:58:41.875Z,22.98
2019-04-01T14:01:11.171Z,22.78
2019-04-01T14:03:40.230Z,22.92
2019-04-01T14:06:09.565Z,22.58
2019-04-01T14:08:38.777Z,22.42
2019-04-01T14:11:07.858Z,23.24
2019-04-01T14:13:37.015Z,23.30
2019-04-01T14:16:06.480Z,23.65
2019-04-01T14:18:35.558Z,23.07
2019-04-01T14:21:15.918Z,23.39
2019-04-01T14:23:35.848Z,23.86
2019-04-01T14:26:05.630Z,23.42
2019-04-01T14:28:35.107Z,23.09
2019-04-01T14:31:07.369Z,22.70
2019-04-01T14:33:36.885Z,22.69
2019-04-01T14:36:06.228Z,22.25
2019-04-01T14:38:35.251Z,22.86
2019-04-01T14:41:05.461Z,22.62
2019-04-01T14:43:34.527Z,22.66
2019-04-01T14:46:03.896Z,22.81
2019-04-01T14:48:33.321Z,22.68
2019-04-01T14:51:02.405Z,22.59
2019-04-01T14:53:31.460Z,22.31
2019-04-01T14:56:00.559Z,22.15
2019-04-01T14:58:29.594Z,22.09
2019-04-01T15:00:58.633Z,22.38
2019-04-01T15:03:27.703Z,22.24
2019-04-01T15:05:56.836Z,22.19
2019-04-01T15:08:25.924Z,21.86
2019-04-01T15:10:55.029Z,21.71
2019-04-01T15:13:24.532Z,22.02
2019-04-01T15:15:53.915Z,22.06
2019-04-01T15:18:23.387Z,21.97
2019-04-01T15:20:52.506Z,21.96
2019-04-01T15:23:24.882Z,22.08
2019-04-01T15:25:54.394Z,21.97
2019-04-01T15:28:23.879Z,22.07
2019-04-01T15:30:53.140Z,22.01
2019-04-01T15:33:22.557Z,21.95
2019-04-01T15:35:52.279Z,21.97
2019-04-01T15:38:22.260Z,21.74
2019-04-01T15:40:51.879Z,21.77
2019-04-01T15:43:21.540Z,21.66
2019-04-01T15:45:50.627Z,21.40
2019-04-01T15:48:19.694Z,21.06
2019-04-01T15:50:49.306Z,21.16
2019-04-01T15:53:18.396Z,20.84
2019-04-01T15:55:48.141Z,21.20
2019-04-01T15:58:17.237Z,21.20
2019-04-01T16:00:46.294Z,21.27
2019-04-01T16:03:15.865Z,21.42
2019-04-01T16:05:45.492Z,21.62
2019-04-01T16:08:14.899Z,21.30
2019-04-01T16:10:44.403Z,21.28
2019-04-01T16:13:14.324Z,20.94
2019-04-01T16:15:43.867Z,20.82
2019-04-01T16:18:13.496Z,20.58
2019-04-01T16:20:43.041Z,20.73
2019-04-01T16:23:12.359Z,20.53
2019-04-01T16:25:41.812Z,20.48
2019-04-01T16:28:10.926Z,20.53
2019-04-01T16:30:40.011Z,20.29
2019-04-01T16:33:09.108Z,20.41
2019-04-01T16:35:38.162Z,20.38
2019-04-01T16:38:07.261Z,20.33
2019-04-01T16:40:36.536Z,20.26
2019-04-01T16:43:05.597Z,20.36
2019-04-01T16:45:34.661Z,20.26
2019-04-01T16:48:03.715Z,20.33
2019-04-01T16:50:33.511Z,20.10
2019-04-01T16:53:06.840Z,20.07
2019-04-01T16:55:36.557Z,20.05
2019-04-01T16:58:06.264Z,19.71
2019-04-01T17:00:35.454Z,19.71
2019-04-01T17:03:04.629Z,19.69
2019-04-01T17:05:35.327Z,19.69
2019-04-01T17:08:05.245Z,19.62
2019-04-01T17:10:34.959Z,19.56
2019-04-01T17:13:04.039Z,19.44
2019-04-01T17:15:33.147Z,19.46
2019-04-01T17:18:02.473Z,19.35
2019-04-01T17:20:31.800Z,19.20
2019-04-01T17:23:01.448Z,19.12
2019-04-01T17:25:30.765Z,19.08
2019-04-01T17:27:59.849Z,18.91
2019-04-01T17:30:29.023Z,18.85
2019-04-01T17:32:58.097Z,18.78
2019-04-01T17:35:27.458Z,18.73
2019-04-01T17:37:56.526Z,18.71
2019-04-01T17:40:25.765Z,18.67
2019-04-01T17:42:54.813Z,18.50
2019-04-01T17:45:42.163Z,18.38
2019-04-01T17:48:11.895Z,18.19
2019-04-01T17:50:41.045Z,18.25
2019-04-01T17:53:10.691Z,18.16
2019-04-01T17:55:40.040Z,18.01
2019-04-01T17:58:09.231Z,17.92
2019-04-01T18:00:42.356Z,17.77
2019-04-01T18:03:11.874Z,17.48
2019-04-01T18:05:41.610Z,17.32
2019-04-01T18:08:10.700Z,17.04
2019-04-01T18:10:40.325Z,16.85
2019-04-01T18:13:09.920Z,16.64
2019-04-01T18:15:39.027Z,16.58
2019-04-01T18:18:10.089Z,16.32
2019-04-01T18:20:39.215Z,16.11
2019-04-01T18:23:08.304Z,15.88
2019-04-01T18:25:37.427Z,15.87
2019-04-01T18:28:06.473Z,15.65
2019-04-01T18:30:35.807Z,15.71
2019-04-01T18:33:04.906Z,15.51
2019-04-01T18:35:34.374Z,15.37
2019-04-01T18:38:03.748Z,15.39
2019-04-01T18:40:35.380Z,15.21
2019-04-01T18:43:03.818Z,15.23
2019-04-01T18:45:32.891Z,15.14
2019-04-01T18:48:03.031Z,15.04
2019-04-01T18:50:32.467Z,14.83
2019-04-01T18:53:01.584Z,14.75
2019-04-01T18:55:31.243Z,14.57
2019-04-01T18:58:00.523Z,14.60
2019-04-01T19:00:29.641Z,14.63
2019-04-01T19:02:58.972Z,14.45
2019-04-01T19:05:28.319Z,14.30
2019-04-01T19:07:57.392Z,14.20
2019-04-01T19:10:27.170Z,14.17
2019-04-01T19:13:05.758Z,14.05
2019-04-01T19:15:28.158Z,13.82
2019-04-01T19:17:57.787Z,13.71
2019-04-01T19:20:30.220Z,13.54
2019-04-01T19:22:58.238Z,13.45
2019-04-01T19:25:27.597Z,13.36
2019-04-01T19:27:56.689Z,13.20
2019-04-01T19:30:25.895Z,13.24
2019-04-01T19:32:55.029Z,13.21
2019-04-01T19:35:24.410Z,12.78
2019-04-01T19:37:53.757Z,12.68
2019-04-01T19:40:23.103Z,12.71
2019-04-01T19:42:53.038Z,12.81
2019-04-01T19:45:22.513Z,12.68
2019-04-01T19:47:51.706Z,12.62
2019-04-01T19:50:21.191Z,12.59
2019-04-01T19:52:50.635Z,12.62
2019-04-01T19:55:19.737Z,12.47
2019-04-01T19:57:49.152Z,12.36
2019-04-01T20:00:27.798Z,12.40
2019-04-01T20:02:49.647Z,12.32
2019-04-01T20:05:18.714Z,12.21
2019-04-01T20:07:47.769Z,12.21
2019-04-01T20:10:17.275Z,12.20
2019-04-01T20:12:46.839Z,12.08
2019-04-01T20:15:15.984Z,12.10
2019-04-01T20:17:45.143Z,12.09
2019-04-01T20:20:14.661Z,12.09
2019-04-01T20:22:44.121Z,12.03
2019-04-01T20:25:13.578Z,12.08
2019-04-01T20:27:44.116Z,11.99
2019-04-01T20:30:13.397Z,12.01
2019-04-01T20:32:42.486Z,12.01
2019-04-01T20:35:22.819Z,11.99
2019-04-01T20:37:42.676Z,11.97
2019-04-01T20:40:12.127Z,12.02
2019-04-01T20:42:41.747Z,11.98
2019-04-01T20:45:13.274Z,11.96
2019-04-01T20:47:41.899Z,12.02
2019-04-01T20:50:11.318Z,12.01
2019-04-01T20:52:40.907Z,12.01
2019-04-01T20:55:10.116Z,11.99
2019-04-01T20:57:39.509Z,12.00
2019-04-01T21:00:09.493Z,11.96
2019-04-01T21:02:39.022Z,12.00
2019-04-01T21:05:08.269Z,11.99
2019-04-01T21:07:38.745Z,11.91
2019-04-01T21:10:08.660Z,11.97
2019-04-01T21:12:37.959Z,11.97
2019-04-01T21:15:07.447Z,11.84
2019-04-01T21:17:36.566Z,11.91
2019-04-01T21:20:06.715Z,11.93
2019-04-01T21:22:36.901Z,11.92
2019-04-01T21:25:07.141Z,11.95
2019-04-01T21:27:36.378Z,12.01
2019-04-01T21:30:06.653Z,11.97
2019-04-01T21:32:36.213Z,11.93
2019-04-01T21:35:09.681Z,12.01
2019-04-01T21:37:38.840Z,12.01
2019-04-01T21:40:08.563Z,11.97
2019-04-01T21:42:38.056Z,11.89
2019-04-01T21:45:07.949Z,11.89
2019-04-01T21:47:37.095Z,11.96
2019-04-01T21:50:07.332Z,11.95
2019-04-01T21:52:36.392Z,11.99
2019-04-01T21:55:07.999Z,11.98
2019-04-01T21:57:37.332Z,12.10
2019-04-01T22:00:08.349Z,12.16
2019-04-01T22:02:37.742Z,12.22
2019-04-01T22:05:07.688Z,12.27
2019-04-01T22:07:38.118Z,12.31
2019-04-01T22:10:07.548Z,12.27
2019-04-01T22:12:36.636Z,12.22
2019-04-01T22:15:06.481Z,12.11
2019-04-01T22:17:36.519Z,12.14
2019-04-01T22:20:07.259Z,12.14
2019-04-01T22:22:37.458Z,11.99
2019-04-01T22:25:06.722Z,11.92
2019-04-01T22:27:35.832Z,11.88
2019-04-01T22:30:06.984Z,11.79
2019-04-01T22:32:36.194Z,11.68
2019-04-01T22:35:08.005Z,11.65
2019-04-01T22:37:37.968Z,11.60
2019-04-01T22:40:07.962Z,11.59
2019-04-01T22:42:37.110Z,11.42
2019-04-01T22:45:07.947Z,11.41
2019-04-01T22:47:37.367Z,11.43
2019-04-01T22:50:06.700Z,11.43
2019-04-01T22:52:35.865Z,11.35
2019-04-01T22:55:08.358Z,11.32
2019-04-01T22:57:38.666Z,11.18
2019-04-01T23:00:07.762Z,11.14
2019-04-01T23:02:37.243Z,11.00
2019-04-01T23:05:08.181Z,10.85
2019-04-01T23:07:37.744Z,10.84
2019-04-01T23:10:07.290Z,10.87
2019-04-01T23:12:36.435Z,10.95
2019-04-01T23:15:06.892Z,11.01
2019-04-01T23:17:38.276Z,10.97
2019-04-01T23:20:07.746Z,10.93
2019-04-01T23:22:37.428Z,10.91
2019-04-01T23:25:10.823Z,10.85
2019-04-01T23:27:39.871Z,10.87
2019-04-01T23:30:10.366Z,10.83
2019-04-01T23:32:41.837Z,10.74
2019-04-01T23:35:10.147Z,10.69
2019-04-01T23:37:39.224Z,10.58
2019-04-01T23:40:08.700Z,10.61
2019-04-01T23:42:38.212Z,10.78
2019-04-01T23:45:07.756Z,10.70
2019-04-01T23:47:37.081Z,10.77
2019-04-01T23:50:09.138Z,10.56
2019-04-01T23:52:38.650Z,10.23
2019-04-01T23:55:08.939Z,10.19
2019-04-01T23:57:38.590Z,10.07
